createdAt,value
2023-12-24T05:00:34.944Z,1.50
2023-12-24T05:01:35.905Z,1.46
2023-12-24T05:02:36.081Z,1.47
2023-12-24T05:03:35.898Z,1.50
2023-12-24T05:04:35.961Z,1.46
2023-12-24T05:05:36.121Z,1.44
2023-12-24T05:06:35.863Z,1.42
2023-12-24T05:07:35.879Z,1.42
2023-12-24T05:08:35.939Z,1.43
2023-12-24T05:09:35.865Z,1.44
2023-12-24T05:10:35.863Z,1.47
2023-12-24T05:11:35.894Z,1.52
2023-12-24T05:12:35.909Z,1.51
2023-12-24T05:13:35.876Z,1.54
2023-12-24T05:14:35.928Z,1.52
2023-12-24T05:15:35.743Z,1.55
2023-12-24T05:16:35.736Z,1.55
2023-12-24T05:17:35.882Z,1.54
2023-12-24T05:18:35.838Z,1.57
2023-12-24T05:19:35.713Z,1.61
2023-12-24T05:20:35.740Z,1.62
2023-12-24T05:21:35.705Z,1.61
2023-12-24T05:22:35.988Z,1.62
2023-12-24T05:23:35.954Z,1.64
2023-12-24T05:24:35.681Z,1.65
2023-12-24T05:25:35.635Z,1.68
2023-12-24T05:26:35.704Z,1.69
2023-12-24T05:27:35.617Z,1.71
2023-12-24T05:28:35.623Z,1.68
2023-12-24T05:29:35.647Z,1.68
2023-12-24T05:30:35.633Z,1.65
2023-12-24T05:31:35.625Z,1.72
2023-12-24T05:32:35.682Z,1.75
2023-12-24T05:33:35.687Z,1.73
2023-12-24T05:34:35.619Z,1.75
2023-12-24T05:35:35.604Z,1.75
2023-12-24T05:36:35.527Z,1.76
2023-12-24T05:37:35.557Z,1.75
2023-12-24T05:38:35.563Z,1.78
2023-12-24T05:39:35.513Z,1.82
2023-12-24T05:40:35.511Z,1.85
2023-12-24T05:41:35.496Z,1.89
2023-12-24T05:42:35.497Z,1.89
2023-12-24T05:43:35.473Z,1.91
2023-12-24T05:44:35.473Z,1.94
2023-12-24T05:45:35.443Z,1.97
2023-12-24T05:46:35.439Z,2.02
2023-12-24T05:47:35.486Z,2.02
2023-12-24T05:48:35.525Z,2.06
2023-12-24T05:49:35.475Z,2.02
2023-12-24T05:50:35.410Z,2.02
2023-12-24T05:51:35.397Z,2.12
2023-12-24T05:52:35.360Z,2.09
2023-12-24T05:53:35.459Z,2.15
2023-12-24T05:54:35.328Z,2.15
2023-12-24T05:55:35.330Z,2.16
2023-12-24T05:56:35.327Z,2.19
2023-12-24T05:57:35.301Z,2.20
2023-12-24T05:58:35.283Z,2.23
2023-12-24T05:59:35.322Z,2.23
2023-12-24T06:00:37.241Z,2.30
2023-12-24T06:01:35.271Z,2.28
2023-12-24T06:02:35.407Z,2.33
2023-12-24T06:03:35.256Z,2.34
2023-12-24T06:04:35.230Z,2.37
2023-12-24T06:05:35.296Z,2.34
2023-12-24T06:06:35.246Z,2.40
2023-12-24T06:07:35.197Z,2.40
2023-12-24T06:08:35.210Z,2.44
2023-12-24T06:09:35.223Z,2.46
2023-12-24T06:10:35.223Z,2.44
2023-12-24T06:11:35.197Z,2.51
2023-12-24T06:12:35.139Z,2.52
2023-12-24T06:13:35.126Z,2.52
2023-12-24T06:14:35.131Z,2.56
2023-12-24T06:15:35.123Z,2.56
2023-12-24T06:16:35.135Z,2.61
2023-12-24T06:17:35.439Z,2.63
2023-12-24T06:18:35.278Z,2.69
2023-12-24T06:19:35.153Z,2.70
2023-12-24T06:20:35.087Z,2.71
2023-12-24T06:21:35.052Z,2.76
2023-12-24T06:22:35.053Z,2.81
2023-12-24T06:23:35.191Z,2.81
2023-12-24T06:24:35.022Z,2.87
2023-12-24T06:25:34.997Z,2.92
2023-12-24T06:26:35.070Z,2.92
2023-12-24T06:27:34.998Z,2.98
2023-12-24T06:28:35.075Z,3.05
2023-12-24T06:29:34.989Z,3.09
2023-12-24T06:30:34.949Z,3.16
2023-12-24T06:31:34.943Z,3.20
2023-12-24T06:32:35.059Z,3.27
2023-12-24T06:33:34.970Z,3.33
2023-12-24T06:34:34.908Z,3.39
2023-12-24T06:35:34.943Z,3.43
2023-12-24T06:36:34.879Z,3.52
2023-12-24T06:37:34.888Z,3.64
2023-12-24T06:38:34.916Z,3.78
2023-12-24T06:39:34.860Z,3.80
2023-12-24T06:40:34.860Z,3.86
2023-12-24T06:41:34.913Z,3.96
2023-12-24T06:42:34.807Z,4.14
2023-12-24T06:43:34.808Z,4.26
2023-12-24T06:44:34.859Z,4.32
2023-12-24T06:45:34.785Z,4.54
2023-12-24T06:46:34.720Z,4.80
2023-12-24T06:47:34.879Z,5.09
2023-12-24T06:48:34.866Z,5.34
2023-12-24T06:49:34.705Z,5.52
2023-12-24T06:50:34.812Z,5.60
2023-12-24T06:51:34.814Z,5.74
2023-12-24T06:52:34.669Z,5.85
2023-12-24T06:53:34.803Z,6.06
2023-12-24T06:54:34.655Z,6.26
2023-12-24T06:55:34.628Z,6.40
2023-12-24T06:56:34.782Z,6.50
2023-12-24T06:57:34.602Z,6.54
2023-12-24T06:58:34.618Z,6.69
2023-12-24T06:59:34.627Z,6.91
2023-12-24T07:00:34.664Z,6.97
2023-12-24T07:01:34.582Z,6.94
2023-12-24T07:02:34.665Z,6.99
2023-12-24T07:05:51.396Z,7.20
2023-12-24T07:06:52.251Z,7.22
2023-12-24T07:07:52.249Z,7.24
2023-12-24T07:08:52.249Z,7.32
2023-12-24T07:09:52.237Z,7.35
2023-12-24T07:10:52.344Z,7.35
2023-12-24T07:11:52.212Z,7.41
2023-12-24T07:12:52.414Z,7.38
2023-12-24T07:13:52.195Z,7.44
2023-12-24T07:14:52.193Z,7.42
2023-12-24T07:15:52.174Z,7.47
2023-12-24T07:16:52.159Z,7.42
2023-12-24T07:17:52.259Z,7.52
2023-12-24T07:18:52.366Z,7.50
2023-12-24T07:19:52.120Z,7.55
2023-12-24T07:20:52.175Z,7.58
2023-12-24T07:21:52.104Z,7.58
2023-12-24T07:22:52.530Z,7.59
2023-12-24T07:23:52.086Z,7.63
2023-12-24T07:24:52.095Z,7.59
2023-12-24T07:25:52.064Z,7.59
2023-12-24T07:26:52.042Z,7.67
2023-12-24T07:27:52.055Z,7.63
2023-12-24T07:28:52.023Z,7.63
2023-12-24T07:29:52.042Z,7.69
2023-12-24T07:30:52.070Z,7.72
2023-12-24T07:31:51.984Z,7.71
2023-12-24T07:32:52.419Z,7.71
2023-12-24T07:33:52.069Z,7.79
2023-12-24T07:34:51.940Z,7.78
2023-12-24T07:35:51.937Z,7.77
2023-12-24T07:36:51.927Z,7.82
2023-12-24T07:37:51.953Z,7.79
2023-12-24T07:38:51.906Z,7.81
2023-12-24T07:39:51.887Z,7.85
2023-12-24T07:40:52.383Z,7.85
2023-12-24T07:41:51.870Z,7.85
2023-12-24T07:42:52.185Z,7.87
2023-12-24T07:43:52.765Z,7.87
2023-12-24T07:44:51.857Z,7.87
2023-12-24T07:45:51.859Z,7.89
2023-12-24T07:46:51.826Z,7.87
2023-12-24T07:47:51.900Z,7.89
2023-12-24T07:48:51.888Z,7.92
2023-12-24T07:49:51.785Z,7.92
2023-12-24T07:50:51.771Z,7.89
2023-12-24T07:51:51.757Z,7.96
2023-12-24T07:52:52.019Z,7.94
2023-12-24T07:53:51.738Z,7.99
2023-12-24T07:54:51.898Z,8.02
2023-12-24T07:55:51.757Z,8.02
2023-12-24T07:56:51.708Z,7.97
2023-12-24T07:57:51.710Z,8.00
2023-12-24T07:58:51.698Z,8.02
2023-12-24T07:59:51.748Z,8.02
2023-12-24T08:00:51.731Z,8.03
2023-12-24T08:01:51.691Z,8.03
2023-12-24T08:02:52.167Z,8.08
2023-12-24T08:03:51.764Z,8.12
2023-12-24T08:04:51.661Z,8.11
2023-12-24T08:05:51.772Z,8.12
2023-12-24T08:06:53.414Z,8.12
2023-12-24T08:07:51.606Z,8.11
2023-12-24T08:08:51.640Z,8.15
2023-12-24T08:09:51.553Z,8.17
2023-12-24T08:10:51.625Z,8.14
2023-12-24T08:11:51.614Z,8.20
2023-12-24T08:12:54.531Z,8.18
2023-12-24T08:13:51.569Z,8.21
2023-12-24T08:14:51.516Z,8.21
2023-12-24T08:15:51.494Z,8.22
2023-12-24T08:16:51.492Z,8.21
2023-12-24T08:17:51.588Z,8.25
2023-12-24T08:18:51.563Z,8.21
2023-12-24T08:19:51.468Z,8.26
2023-12-24T08:20:51.430Z,8.25
2023-12-24T08:21:51.471Z,8.26
2023-12-24T08:22:51.692Z,8.26
2023-12-24T08:23:51.457Z,8.29
2023-12-24T08:24:51.416Z,8.28
2023-12-24T08:25:51.404Z,8.30
2023-12-24T08:26:51.381Z,8.28
2023-12-24T08:27:51.372Z,8.28
2023-12-24T08:28:51.365Z,8.30
2023-12-24T08:29:51.344Z,8.30
2023-12-24T08:30:51.355Z,8.30
2023-12-24T08:31:51.334Z,8.30
2023-12-24T08:32:51.745Z,8.32
2023-12-24T08:33:51.438Z,8.25
2023-12-24T08:34:51.304Z,8.28
2023-12-24T08:35:51.305Z,8.30
2023-12-24T08:36:51.451Z,8.29
2023-12-24T08:37:51.273Z,8.29
2023-12-24T08:38:51.246Z,8.28
2023-12-24T08:39:51.247Z,8.29
2023-12-24T08:40:51.223Z,8.30
2023-12-24T08:41:51.259Z,8.33
2023-12-24T08:42:51.500Z,8.33
2023-12-24T08:43:51.226Z,8.30
2023-12-24T08:44:51.192Z,8.35
2023-12-24T08:45:51.243Z,8.35
2023-12-24T08:46:51.148Z,8.39
2023-12-24T08:47:51.328Z,8.40
2023-12-24T08:48:51.308Z,8.37
2023-12-24T08:49:51.126Z,8.35
2023-12-24T08:50:51.154Z,8.37
2023-12-24T08:51:51.184Z,8.42
2023-12-24T08:52:51.426Z,8.39
2023-12-24T08:53:51.151Z,8.42
2023-12-24T08:54:51.176Z,8.40
2023-12-24T08:55:51.096Z,8.40
2023-12-24T08:56:51.114Z,8.42
2023-12-24T08:57:51.126Z,8.47
2023-12-24T08:58:51.087Z,8.44
2023-12-24T08:59:51.086Z,8.40
2023-12-24T09:00:51.078Z,8.42
2023-12-24T09:01:51.025Z,8.47
2023-12-24T09:02:51.334Z,8.42
2023-12-24T09:03:51.020Z,8.44
2023-12-24T09:04:51.177Z,8.45
2023-12-24T09:05:51.103Z,8.53
2023-12-24T09:06:51.017Z,8.50
2023-12-24T09:07:50.947Z,8.48
2023-12-24T09:08:50.981Z,8.48
2023-12-24T09:09:50.901Z,8.50
2023-12-24T09:10:50.904Z,8.48
2023-12-24T09:11:50.927Z,8.53
2023-12-24T09:12:51.154Z,8.50
2023-12-24T09:13:50.900Z,8.50
2023-12-24T09:14:50.862Z,8.53
2023-12-24T09:15:50.897Z,8.51
2023-12-24T09:16:50.839Z,8.48
2023-12-24T09:17:51.060Z,8.54
2023-12-24T09:18:50.900Z,8.51
2023-12-24T09:19:50.809Z,8.54
2023-12-24T09:20:50.843Z,8.55
2023-12-24T09:21:50.767Z,8.54
2023-12-24T09:22:51.011Z,8.53
2023-12-24T09:23:50.762Z,8.54
2023-12-24T09:24:51.300Z,8.54
2023-12-24T09:25:52.178Z,8.51
2023-12-24T09:26:50.837Z,8.55
2023-12-24T09:27:50.722Z,8.54
2023-12-24T09:28:50.709Z,8.53
2023-12-24T09:29:50.699Z,8.57
2023-12-24T09:30:51.575Z,8.57
2023-12-24T09:31:50.688Z,8.54
2023-12-24T09:32:50.924Z,8.58
2023-12-24T09:33:50.750Z,8.57
2023-12-24T09:34:50.653Z,8.57
2023-12-24T09:35:50.676Z,8.57
2023-12-24T09:36:50.611Z,8.60
2023-12-24T09:37:50.663Z,8.57
2023-12-24T09:38:50.648Z,8.58
2023-12-24T09:39:50.587Z,8.63
2023-12-24T09:40:50.612Z,8.60
2023-12-24T09:41:50.608Z,8.62
2023-12-24T09:42:50.837Z,8.57
2023-12-24T09:43:50.564Z,8.62
2023-12-24T09:44:50.597Z,8.62
2023-12-24T09:45:50.518Z,8.60
2023-12-24T09:46:51.036Z,8.63
2023-12-24T09:47:50.666Z,8.63
2023-12-24T09:48:50.552Z,8.65
2023-12-24T09:49:50.468Z,8.65
2023-12-24T09:50:50.513Z,8.65
2023-12-24T09:51:50.478Z,8.65
2023-12-24T09:52:50.553Z,8.66
2023-12-24T09:53:50.505Z,8.66
2023-12-24T09:54:50.448Z,8.69
2023-12-24T09:55:50.414Z,8.65
2023-12-24T09:56:50.540Z,8.68
2023-12-24T09:57:50.506Z,8.73
2023-12-24T09:58:50.396Z,8.69
2023-12-24T09:59:50.425Z,8.71
2023-12-24T10:00:50.373Z,8.68
2023-12-24T10:01:50.339Z,8.71
2023-12-24T10:02:50.600Z,8.71
2023-12-24T10:03:50.359Z,8.71
2023-12-24T10:04:50.334Z,8.71
2023-12-24T10:05:50.373Z,8.73
2023-12-24T10:06:50.331Z,8.75
2023-12-24T10:07:50.271Z,8.75
2023-12-24T10:08:50.248Z,8.76
2023-12-24T10:09:50.269Z,8.75
2023-12-24T10:10:50.231Z,8.78
2023-12-24T10:11:50.234Z,8.76
2023-12-24T10:12:50.278Z,8.76
2023-12-24T10:13:50.205Z,8.84
2023-12-24T10:14:50.276Z,8.83
2023-12-24T10:15:50.200Z,8.86
2023-12-24T10:16:50.205Z,8.83
2023-12-24T10:17:50.300Z,8.83
2023-12-24T10:18:50.212Z,8.84
2023-12-24T10:19:50.145Z,8.78
2023-12-24T10:20:50.265Z,8.83
2023-12-24T10:21:50.115Z,8.83
2023-12-24T10:22:52.308Z,8.81
2023-12-24T10:23:50.169Z,8.81
2023-12-24T10:24:50.076Z,8.78
2023-12-24T10:25:50.063Z,8.76
2023-12-24T10:26:50.115Z,8.75
2023-12-24T10:27:50.099Z,8.72
2023-12-24T10:28:55.459Z,8.71
2023-12-24T10:29:50.191Z,8.69
2023-12-24T10:30:50.078Z,8.66
2023-12-24T10:31:50.049Z,8.68
2023-12-24T10:32:50.237Z,8.69
2023-12-24T10:33:50.168Z,8.69
2023-12-24T10:34:49.996Z,8.71
2023-12-24T10:35:50.098Z,8.71
2023-12-24T10:36:49.935Z,8.71
2023-12-24T10:37:49.967Z,8.69
2023-12-24T10:38:50.036Z,8.69
2023-12-24T10:39:49.916Z,8.76
2023-12-24T10:40:49.894Z,8.73
2023-12-24T10:41:49.904Z,8.73
2023-12-24T10:42:50.012Z,8.73
2023-12-24T10:43:49.889Z,8.78
2023-12-24T10:44:49.965Z,8.78
2023-12-24T10:45:49.848Z,8.78
2023-12-24T10:46:49.838Z,8.79
2023-12-24T10:47:49.875Z,8.78
2023-12-24T10:48:49.935Z,8.81
2023-12-24T10:49:49.807Z,8.83
2023-12-24T10:50:49.801Z,8.83
2023-12-24T10:51:49.790Z,8.83
2023-12-24T10:52:49.999Z,8.86
2023-12-24T10:53:49.850Z,8.87
2023-12-24T10:54:49.750Z,8.84
2023-12-24T10:55:49.738Z,8.87
2023-12-24T10:56:49.823Z,8.88
2023-12-24T10:57:49.719Z,8.88
2023-12-24T10:58:49.694Z,8.90
2023-12-24T10:59:49.759Z,8.88
2023-12-24T11:00:49.697Z,8.90
2023-12-24T11:01:49.676Z,8.90
2023-12-24T11:02:49.804Z,8.90
2023-12-24T11:03:49.886Z,8.96
2023-12-24T11:04:49.702Z,8.90
2023-12-24T11:05:50.336Z,8.96
2023-12-24T11:06:49.606Z,8.91
2023-12-24T11:07:49.608Z,8.96
2023-12-24T11:08:49.601Z,8.97
2023-12-24T11:09:49.585Z,8.97
2023-12-24T11:10:49.584Z,8.99
2023-12-24T11:11:49.594Z,8.99
2023-12-24T11:12:58.104Z,9.02
2023-12-24T11:13:49.577Z,9.01
2023-12-24T11:14:49.583Z,9.05
2023-12-24T11:15:49.520Z,9.04
2023-12-24T11:16:49.564Z,9.02
2023-12-24T11:17:49.930Z,9.06
2023-12-24T11:18:49.806Z,9.06
2023-12-24T11:19:49.472Z,9.05
2023-12-24T11:20:51.305Z,9.09
2023-12-24T11:21:49.496Z,9.06
2023-12-24T11:22:49.440Z,9.09
2023-12-24T11:23:49.510Z,9.09
2023-12-24T11:24:54.332Z,9.09
2023-12-24T11:25:49.424Z,9.12
2023-12-24T11:26:49.989Z,9.12
2023-12-24T11:27:52.258Z,9.12
2023-12-24T11:28:49.373Z,9.13
2023-12-24T11:29:50.414Z,9.13
2023-12-24T11:30:49.440Z,9.12
2023-12-24T11:31:49.359Z,9.13
2023-12-24T11:32:50.744Z,9.13
2023-12-24T11:33:49.528Z,9.15
2023-12-24T11:34:49.333Z,9.18
2023-12-24T11:35:49.391Z,9.13
2023-12-24T11:36:49.286Z,9.13
2023-12-24T11:37:49.273Z,9.20
2023-12-24T11:38:51.331Z,9.16
2023-12-24T11:39:49.247Z,9.18
2023-12-24T11:40:49.236Z,9.16
2023-12-24T11:41:49.333Z,9.15
2023-12-24T11:42:49.234Z,9.18
2023-12-24T11:43:49.211Z,9.21
2023-12-24T11:44:49.232Z,9.16
2023-12-24T11:45:49.193Z,9.18
2023-12-24T11:46:49.168Z,9.20
2023-12-24T11:47:49.309Z,9.20
2023-12-24T11:48:49.210Z,9.20
2023-12-24T11:49:49.144Z,9.21
2023-12-24T11:50:49.208Z,9.23
2023-12-24T11:51:49.138Z,9.20
2023-12-24T11:52:49.164Z,9.24
2023-12-24T11:53:49.205Z,9.25
2023-12-24T11:54:49.095Z,9.25
2023-12-24T11:55:49.061Z,9.21
2023-12-24T11:56:49.110Z,9.24
2023-12-24T11:57:49.061Z,9.24
2023-12-24T11:58:49.054Z,9.21
2023-12-24T11:59:49.152Z,9.23
2023-12-24T12:00:49.062Z,9.21
2023-12-24T12:01:49.041Z,9.24
2023-12-24T12:02:49.066Z,9.28
2023-12-24T12:03:49.044Z,9.25
2023-12-24T12:04:49.022Z,9.27
2023-12-24T12:05:49.058Z,9.28
2023-12-24T12:06:49.046Z,9.30
2023-12-24T12:07:48.928Z,9.24
2023-12-24T12:08:48.985Z,9.27
2023-12-24T12:09:48.915Z,9.25
2023-12-24T12:10:48.919Z,9.25
2023-12-24T12:11:48.998Z,9.25
2023-12-24T12:12:48.903Z,9.27
2023-12-24T12:13:48.903Z,9.28
2023-12-24T12:14:48.872Z,9.27
2023-12-24T12:15:48.894Z,9.25
2023-12-24T12:16:48.848Z,9.23
2023-12-24T12:17:48.981Z,9.24
2023-12-24T12:18:48.808Z,9.25
2023-12-24T12:19:48.883Z,9.24
2023-12-24T12:20:48.978Z,9.25
2023-12-24T12:21:48.891Z,9.25
2023-12-24T12:22:48.779Z,9.24
2023-12-24T12:23:48.812Z,9.25
2023-12-24T12:24:48.738Z,9.27
2023-12-24T12:25:48.734Z,9.27
2023-12-24T12:26:48.803Z,9.25
2023-12-24T12:27:49.305Z,9.27
2023-12-24T12:28:48.717Z,9.27
2023-12-24T12:29:48.709Z,9.28
2023-12-24T12:30:48.695Z,9.25
2023-12-24T12:31:48.661Z,9.28
2023-12-24T12:32:48.737Z,9.27
2023-12-24T12:33:50.210Z,9.24
2023-12-24T12:34:48.669Z,9.30
2023-12-24T12:35:48.681Z,9.25
2023-12-24T12:36:48.634Z,9.28
2023-12-24T12:37:48.619Z,9.27
2023-12-24T12:38:48.719Z,9.27
2023-12-24T12:39:51.261Z,9.30
2023-12-24T12:40:49.447Z,9.35
2023-12-24T12:41:48.583Z,9.30
2023-12-24T12:42:48.590Z,9.31
2023-12-24T12:43:48.559Z,9.34
2023-12-24T12:44:48.611Z,9.32
2023-12-24T12:45:51.292Z,9.31
2023-12-24T12:46:48.548Z,9.32
2023-12-24T12:47:48.605Z,9.30
2023-12-24T12:48:48.637Z,9.32
2023-12-24T12:49:48.492Z,9.32
2023-12-24T12:50:48.542Z,9.35
2023-12-24T12:51:51.842Z,9.34
2023-12-24T12:52:48.458Z,9.34
2023-12-24T12:53:48.442Z,9.39
2023-12-24T12:54:48.473Z,9.38
2023-12-24T12:55:48.403Z,9.34
2023-12-24T12:56:48.668Z,9.34
2023-12-24T12:57:51.120Z,9.34
2023-12-24T12:58:48.384Z,9.39
2023-12-24T12:59:48.391Z,9.40
2023-12-24T13:00:48.429Z,9.39
2023-12-24T13:01:48.369Z,9.45
2023-12-24T13:02:48.409Z,9.40
2023-12-24T13:03:48.395Z,9.42
2023-12-24T13:04:48.293Z,9.46
2023-12-24T13:05:48.385Z,9.45
2023-12-24T13:06:48.344Z,9.45
2023-12-24T13:07:48.310Z,9.43
2023-12-24T13:08:48.288Z,9.43
2023-12-24T13:09:50.779Z,9.42
2023-12-24T13:10:48.266Z,9.48
2023-12-24T13:11:48.258Z,9.49
2023-12-24T13:12:48.292Z,9.48
2023-12-24T13:13:48.210Z,9.49
2023-12-24T13:14:48.241Z,9.48
2023-12-24T13:15:48.173Z,9.49
2023-12-24T13:16:48.174Z,9.52
2023-12-24T13:17:48.283Z,9.50
2023-12-24T13:18:48.213Z,9.52
2023-12-24T13:19:48.136Z,9.49
2023-12-24T13:20:48.304Z,9.52
2023-12-24T13:21:50.219Z,9.50
2023-12-24T13:22:48.114Z,9.53
2023-12-24T13:23:48.228Z,9.53
2023-12-24T13:24:48.160Z,9.58
2023-12-24T13:25:48.169Z,9.63
2023-12-24T13:26:48.100Z,9.60
2023-12-24T13:27:48.064Z,9.64
2023-12-24T13:28:48.103Z,9.63
2023-12-24T13:29:48.041Z,9.64
2023-12-24T13:30:48.225Z,9.71
2023-12-24T13:31:48.032Z,9.67
2023-12-24T13:32:48.182Z,9.66
2023-12-24T13:33:48.061Z,9.68
2023-12-24T13:34:47.972Z,9.71
2023-12-24T13:35:48.187Z,9.73
2023-12-24T13:36:47.945Z,9.64
2023-12-24T13:37:47.968Z,9.71
2023-12-24T13:38:48.043Z,9.71
2023-12-24T13:39:47.916Z,9.71
2023-12-24T13:40:47.906Z,9.70
2023-12-24T13:41:47.937Z,9.75
2023-12-24T13:42:47.901Z,9.75
2023-12-24T13:43:47.910Z,9.79
2023-12-24T13:44:47.862Z,9.75
2023-12-24T13:45:47.873Z,9.75
2023-12-24T13:46:47.875Z,9.73
2023-12-24T13:47:47.984Z,9.75
2023-12-24T13:48:47.965Z,9.79
2023-12-24T13:49:47.805Z,9.71
2023-12-24T13:50:47.933Z,9.75
2023-12-24T13:51:47.793Z,9.73
2023-12-24T13:52:47.777Z,9.78
2023-12-24T13:53:47.788Z,9.75
2023-12-24T13:54:47.751Z,9.71
2023-12-24T13:55:47.746Z,9.78
2023-12-24T13:56:47.748Z,9.73
2023-12-24T13:57:47.707Z,9.75
2023-12-24T13:58:47.760Z,9.75
2023-12-24T13:59:47.757Z,9.75
2023-12-24T14:00:47.686Z,9.76
2023-12-24T14:01:47.765Z,9.75
2023-12-24T14:02:48.557Z,9.76
2023-12-24T14:03:47.744Z,9.79
2023-12-24T14:04:47.709Z,9.79
2023-12-24T14:05:47.658Z,9.81
2023-12-24T14:06:47.680Z,9.81
2023-12-24T14:07:47.643Z,9.79
2023-12-24T14:08:47.649Z,9.79
2023-12-24T14:09:47.593Z,9.83
2023-12-24T14:10:47.582Z,9.79
2023-12-24T14:11:47.689Z,9.82
2023-12-24T14:12:47.570Z,9.83
2023-12-24T14:13:47.590Z,9.83
2023-12-24T14:14:47.580Z,9.82
2023-12-24T14:15:47.559Z,9.83
2023-12-24T14:16:47.533Z,9.81
2023-12-24T14:17:47.645Z,9.79
2023-12-24T14:18:47.596Z,9.81
2023-12-24T14:19:47.484Z,9.82
2023-12-24T14:20:47.555Z,9.85
2023-12-24T14:21:47.457Z,9.82
2023-12-24T14:22:47.463Z,9.81
2023-12-24T14:23:47.476Z,9.78
2023-12-24T14:24:47.413Z,9.79
2023-12-24T14:25:47.445Z,9.75
2023-12-24T14:26:47.448Z,9.73
2023-12-24T14:27:47.399Z,9.76
2023-12-24T14:28:47.391Z,9.75
2023-12-24T14:29:47.373Z,9.73
2023-12-24T14:30:47.411Z,9.73
2023-12-24T14:31:47.347Z,9.71
2023-12-24T14:32:47.427Z,9.75
2023-12-24T14:33:47.507Z,9.71
2023-12-24T14:34:47.317Z,9.75
2023-12-24T14:35:47.515Z,9.71
2023-12-24T14:36:47.298Z,9.70
2023-12-24T14:37:47.290Z,9.70
2023-12-24T14:38:47.378Z,9.67
2023-12-24T14:39:47.255Z,9.66
2023-12-24T14:40:47.275Z,9.68
2023-12-24T14:41:47.263Z,9.63
2023-12-24T14:42:47.227Z,9.61
2023-12-24T14:43:47.227Z,9.61
2023-12-24T14:44:47.198Z,9.63
2023-12-24T14:45:47.209Z,9.58
2023-12-24T14:46:47.215Z,9.57
2023-12-24T14:47:47.456Z,9.60
2023-12-24T14:48:47.216Z,9.49
2023-12-24T14:49:47.146Z,9.53
2023-12-24T14:50:47.212Z,9.52
2023-12-24T14:51:47.206Z,9.49
2023-12-24T14:52:47.122Z,9.49
2023-12-24T14:53:47.211Z,9.50
2023-12-24T14:54:47.103Z,9.50
2023-12-24T14:55:47.075Z,9.49
2023-12-24T14:56:47.159Z,9.46
2023-12-24T14:57:47.066Z,9.49
2023-12-24T14:58:47.092Z,9.48
2023-12-24T14:59:47.060Z,9.46
2023-12-24T15:00:47.079Z,9.48
2023-12-24T15:01:47.007Z,9.48
2023-12-24T15:02:47.002Z,9.43
2023-12-24T15:03:47.018Z,9.49
2023-12-24T15:04:46.978Z,9.48
2023-12-24T15:05:47.094Z,9.48
2023-12-24T15:06:46.981Z,9.45
2023-12-24T15:07:46.928Z,9.48
2023-12-24T15:08:46.982Z,9.49
2023-12-24T15:09:46.913Z,9.49
2023-12-24T15:10:46.928Z,9.49
2023-12-24T15:11:46.921Z,9.46
2023-12-24T15:12:46.896Z,9.46
2023-12-24T15:13:46.920Z,9.50
2023-12-24T15:14:46.933Z,9.49
2023-12-24T15:15:46.891Z,9.52
2023-12-24T15:16:46.857Z,9.49
2023-12-24T15:17:46.919Z,9.52
2023-12-24T15:18:46.944Z,9.56
2023-12-24T15:19:46.882Z,9.53
2023-12-24T15:20:46.878Z,9.53
2023-12-24T15:21:46.815Z,9.57
2023-12-24T15:22:46.786Z,9.57
2023-12-24T15:23:46.831Z,9.53
2023-12-24T15:24:46.863Z,9.60
2023-12-24T15:25:46.812Z,9.53
2023-12-24T15:26:46.793Z,9.57
2023-12-24T15:27:46.794Z,9.58
2023-12-24T15:28:46.814Z,9.58
2023-12-24T15:29:46.782Z,9.56
2023-12-24T15:30:46.777Z,9.57
2023-12-24T15:31:46.743Z,9.57
2023-12-24T15:32:46.910Z,9.57
2023-12-24T15:33:46.867Z,9.56
2023-12-24T15:34:46.777Z,9.53
2023-12-24T15:35:46.752Z,9.56
2023-12-24T15:36:46.698Z,9.52
2023-12-24T15:37:46.657Z,9.56
2023-12-24T15:38:46.723Z,9.56
2023-12-24T15:39:46.659Z,9.56
2023-12-24T15:40:46.674Z,9.56
2023-12-24T15:41:46.835Z,9.60
2023-12-24T15:42:46.628Z,9.53
2023-12-24T15:43:46.827Z,9.61
2023-12-24T15:44:46.680Z,9.52
2023-12-24T15:45:46.562Z,9.58
2023-12-24T15:46:46.555Z,9.61
2023-12-24T15:47:46.647Z,9.58
2023-12-24T15:48:46.619Z,9.61
2023-12-24T15:49:46.575Z,9.63
2023-12-24T15:50:46.551Z,9.64
2023-12-24T15:51:46.540Z,9.64
2023-12-24T15:52:46.506Z,9.70
2023-12-24T15:53:46.552Z,9.64
2023-12-24T15:54:46.487Z,9.68
2023-12-24T15:55:46.465Z,9.68
2023-12-24T15:56:46.529Z,9.68
2023-12-24T15:57:46.433Z,9.68
2023-12-24T15:58:46.424Z,9.70
2023-12-24T15:59:46.504Z,9.68
2023-12-24T16:00:47.395Z,9.71
2023-12-24T16:01:46.400Z,9.71
2023-12-24T16:02:46.483Z,9.73
2023-12-24T16:03:46.376Z,9.71
2023-12-24T16:04:46.428Z,9.75
2023-12-24T16:05:46.370Z,9.76
2023-12-24T16:06:46.373Z,9.73
2023-12-24T16:07:46.325Z,9.73
2023-12-24T16:08:46.390Z,9.73
2023-12-24T16:09:46.311Z,9.75
2023-12-24T16:10:46.300Z,9.73
2023-12-24T16:11:46.325Z,9.71
2023-12-24T16:12:46.266Z,9.73
2023-12-24T16:13:46.253Z,9.78
2023-12-24T16:14:46.270Z,9.75
2023-12-24T16:15:46.229Z,9.78
2023-12-24T16:16:46.233Z,9.78
2023-12-24T16:17:46.309Z,9.75
2023-12-24T16:18:46.337Z,9.76
2023-12-24T16:19:46.206Z,9.76
2023-12-24T16:20:46.147Z,9.75
2023-12-24T16:21:46.223Z,9.76
2023-12-24T16:22:46.159Z,9.75
2023-12-24T16:23:46.178Z,9.79
2023-12-24T16:24:46.160Z,9.79
2023-12-24T16:25:46.137Z,9.81
2023-12-24T16:26:46.277Z,9.79
2023-12-24T16:27:46.069Z,9.78
2023-12-24T16:28:46.098Z,9.75
2023-12-24T16:29:46.193Z,9.79
2023-12-24T16:30:46.097Z,9.70
2023-12-24T16:31:46.136Z,9.75
2023-12-24T16:32:46.190Z,9.70
2023-12-24T16:33:46.300Z,9.76
2023-12-24T16:34:46.056Z,9.76
2023-12-24T16:35:46.049Z,9.78
2023-12-24T16:36:46.024Z,9.81
2023-12-24T16:37:46.001Z,9.79
2023-12-24T16:38:46.030Z,9.73
2023-12-24T16:39:45.974Z,9.73
2023-12-24T16:40:45.966Z,9.75
2023-12-24T16:41:46.012Z,9.75
2023-12-24T16:42:46.061Z,9.75
2023-12-24T16:43:45.908Z,9.75
2023-12-24T16:44:45.996Z,9.75
2023-12-24T16:45:45.905Z,9.76
2023-12-24T16:46:45.923Z,9.82
2023-12-24T16:47:46.251Z,9.76
2023-12-24T16:48:46.063Z,9.76
2023-12-24T16:49:45.865Z,9.79
2023-12-24T16:50:45.848Z,9.83
2023-12-24T16:51:45.844Z,9.82
2023-12-24T16:52:45.822Z,9.76
2023-12-24T16:53:45.930Z,9.81
2023-12-24T16:54:45.866Z,9.76
2023-12-24T16:55:45.814Z,9.76
2023-12-24T16:56:45.860Z,9.75
2023-12-24T16:57:45.786Z,9.70
2023-12-24T16:58:45.778Z,9.73
2023-12-24T16:59:45.845Z,9.73
2023-12-24T17:00:45.741Z,9.73
2023-12-24T17:01:45.730Z,9.76
2023-12-24T17:02:45.734Z,9.73
2023-12-24T17:03:45.745Z,9.71
2023-12-24T17:04:45.727Z,9.79
2023-12-24T17:05:45.716Z,9.76
2023-12-24T17:06:45.671Z,9.71
2023-12-24T17:07:45.664Z,9.79
2023-12-24T17:08:45.704Z,9.73
2023-12-24T17:09:45.647Z,9.76
2023-12-24T17:10:45.623Z,9.73
2023-12-24T17:11:45.673Z,9.71
2023-12-24T17:12:45.631Z,9.71
2023-12-24T17:13:45.615Z,9.70
2023-12-24T17:14:45.602Z,9.67
2023-12-24T17:15:45.569Z,9.70
2023-12-24T17:16:45.571Z,9.67
2023-12-24T17:17:45.608Z,9.70
2023-12-24T17:18:45.730Z,9.68
2023-12-24T17:19:45.673Z,9.70
2023-12-24T17:20:45.536Z,9.73
2023-12-24T17:21:45.513Z,9.68
2023-12-24T17:22:45.511Z,9.68
2023-12-24T17:23:45.556Z,9.66
2023-12-24T17:24:45.479Z,9.67
2023-12-24T17:25:45.495Z,9.68
2023-12-24T17:26:45.471Z,9.68
2023-12-24T17:27:45.469Z,9.68
2023-12-24T17:28:45.432Z,9.70
2023-12-24T17:29:45.758Z,9.70
2023-12-24T17:30:45.442Z,9.68
2023-12-24T17:31:45.399Z,9.68
2023-12-24T17:32:45.443Z,9.68
2023-12-24T17:33:45.445Z,9.70
2023-12-24T17:34:45.467Z,9.71
2023-12-24T17:35:45.640Z,9.67
2023-12-24T17:36:45.332Z,9.73
2023-12-24T17:37:45.361Z,9.70
2023-12-24T17:38:45.405Z,9.70
2023-12-24T17:39:45.327Z,9.70
2023-12-24T17:40:45.289Z,9.76
2023-12-24T17:41:45.339Z,9.71
2023-12-24T17:42:45.333Z,9.73
2023-12-24T17:43:45.262Z,9.73
2023-12-24T17:44:45.363Z,9.70
2023-12-24T17:45:45.242Z,9.70
2023-12-24T17:46:45.871Z,9.73
2023-12-24T17:47:45.459Z,9.70
2023-12-24T17:48:45.281Z,9.75
2023-12-24T17:49:45.235Z,9.75
2023-12-24T17:50:45.363Z,9.73
2023-12-24T17:51:45.176Z,9.70
2023-12-24T17:52:45.158Z,9.71
2023-12-24T17:53:45.175Z,9.71
2023-12-24T17:54:45.178Z,9.68
2023-12-24T17:55:45.143Z,9.79
2023-12-24T17:56:45.138Z,9.73
2023-12-24T17:57:45.134Z,9.75
2023-12-24T17:58:45.100Z,9.78
2023-12-24T17:59:45.164Z,9.78
2023-12-24T18:00:45.108Z,9.78
2023-12-24T18:01:45.071Z,9.78
2023-12-24T18:02:45.125Z,9.76
2023-12-24T18:03:45.072Z,9.82
2023-12-24T18:04:45.042Z,9.82
2023-12-24T18:05:45.159Z,9.81
2023-12-24T18:06:45.208Z,9.83
2023-12-24T18:07:45.004Z,9.89
2023-12-24T18:08:45.042Z,9.89
2023-12-24T18:09:45.014Z,9.86
2023-12-24T18:10:45.000Z,9.88
2023-12-24T18:11:45.041Z,9.86
2023-12-24T18:12:44.950Z,9.86
2023-12-24T18:13:44.962Z,9.94
2023-12-24T18:14:45.808Z,9.94
2023-12-24T18:15:44.928Z,9.93
2023-12-24T18:16:44.915Z,9.99
2023-12-24T18:17:44.962Z,10.03
2023-12-24T18:18:44.945Z,10.12
2023-12-24T18:19:44.870Z,10.07
2023-12-24T18:20:44.953Z,10.09